createdAt,value
2023-12-04T04:42:44.190Z,2.37
2023-12-04T04:45:47.895Z,4.50
2023-12-04T04:48:50.765Z,4.30
2023-12-04T04:51:53.838Z,4.47
2023-12-04T04:54:56.872Z,5.65
2023-12-04T04:58:00.122Z,5.87
2023-12-04T05:04:05.861Z,5.45
2023-12-04T05:07:08.662Z,5.95
2023-12-04T05:10:12.028Z,5.53
2023-12-04T05:13:15.018Z,6.70
2023-12-04T05:16:18.247Z,5.40
2023-12-04T05:22:24.230Z,4.90
2023-12-04T05:25:31.622Z,6.18
2023-12-04T05:28:37.229Z,6.40
2023-12-04T05:31:39.970Z,6.80
2023-12-04T05:34:43.329Z,6.85
2023-12-04T05:37:46.467Z,6.70
2023-12-04T05:40:49.959Z,6.10
2023-12-04T05:43:52.640Z,9.70
2023-12-04T05:49:58.296Z,5.43
2023-12-04T05:53:01.563Z,5.68
2023-12-04T05:56:06.490Z,7.68
2023-12-04T05:59:09.898Z,5.80
2023-12-04T06:02:13.988Z,6.18
2023-12-04T06:05:17.325Z,5.37
2023-12-04T06:08:20.175Z,7.28
2023-12-04T06:11:23.404Z,6.72
2023-12-04T06:14:26.066Z,6.22
2023-12-04T06:17:29.522Z,4.90
2023-12-04T06:20:32.219Z,5.47
2023-12-04T06:23:36.130Z,5.72
2023-12-04T06:26:43.759Z,5.93
2023-12-04T06:29:50.642Z,6.00
2023-12-04T06:32:54.530Z,6.78
2023-12-04T06:35:57.817Z,7.05
2023-12-04T06:42:10.855Z,6.50
2023-12-04T06:45:14.264Z,6.78
2023-12-04T06:48:18.290Z,8.48
2023-12-04T06:51:21.293Z,6.87
2023-12-04T06:57:26.949Z,6.57
2023-12-04T07:00:31.158Z,7.07
2023-12-04T07:03:34.012Z,7.18
2023-12-04T07:06:38.041Z,7.28
2023-12-04T07:09:40.685Z,6.80
2023-12-04T07:15:46.801Z,6.70
2023-12-04T07:21:52.566Z,7.53
2023-12-04T07:24:55.596Z,7.62
2023-12-04T07:27:59.294Z,6.75
2023-12-04T07:31:05.379Z,9.45
2023-12-04T07:34:08.215Z,9.48
2023-12-04T07:37:11.165Z,8.60
2023-12-04T07:40:14.067Z,8.27
2023-12-04T07:43:17.281Z,9.23
2023-12-04T07:46:20.287Z,9.13
2023-12-04T07:52:25.921Z,8.73
2023-12-04T07:55:29.465Z,8.77
2023-12-04T07:58:32.769Z,7.87
2023-12-04T08:01:35.902Z,7.20
2023-12-04T08:04:39.082Z,7.70
2023-12-04T08:07:42.092Z,8.32
2023-12-04T08:10:45.120Z,7.32
2023-12-04T08:13:47.699Z,7.18
2023-12-04T08:19:53.836Z,6.17
2023-12-04T08:22:56.901Z,7.00
2023-12-04T08:26:00.628Z,8.05
2023-12-04T08:29:04.697Z,5.95
2023-12-04T08:32:07.939Z,6.18
2023-12-04T08:35:10.878Z,5.57
2023-12-04T08:38:13.973Z,5.70
2023-12-04T08:41:17.064Z,5.22
2023-12-04T08:44:19.988Z,5.75
2023-12-04T08:47:24.674Z,5.22
2023-12-04T08:50:27.410Z,4.85
2023-12-04T08:53:31.440Z,6.12
2023-12-04T08:59:37.638Z,6.47
2023-12-04T09:05:53.726Z,5.60
2023-12-04T09:09:03.326Z,6.65
2023-12-04T09:12:11.600Z,5.70
2023-12-04T09:15:14.579Z,6.32
2023-12-04T09:18:18.452Z,6.28
2023-12-04T09:21:21.965Z,6.25
2023-12-04T09:27:27.671Z,5.70
2023-12-04T09:30:31.145Z,6.45
2023-12-04T09:36:37.359Z,6.10
2023-12-04T09:39:40.876Z,7.45
2023-12-04T09:42:44.185Z,8.63
2023-12-04T09:45:47.423Z,7.60
2023-12-04T09:48:52.892Z,6.10
2023-12-04T09:51:58.954Z,8.13
2023-12-04T09:55:02.413Z,6.68
2023-12-04T09:58:06.887Z,7.05
2023-12-04T10:01:12.504Z,6.10
2023-12-04T10:04:15.666Z,6.25
2023-12-04T10:07:18.305Z,4.80
2023-12-04T10:10:21.772Z,6.43
2023-12-04T10:13:55.844Z,5.80
2023-12-04T10:16:48.753Z,6.12
2023-12-04T10:20:11.863Z,6.65
2023-12-04T10:23:15.739Z,7.30
2023-12-04T10:26:18.735Z,5.65
2023-12-04T10:29:21.793Z,5.45
2023-12-04T10:32:24.552Z,6.47
2023-12-04T10:35:33.818Z,6.70
2023-12-04T10:38:36.484Z,5.60
2023-12-04T10:41:39.973Z,6.37
2023-12-04T10:44:42.665Z,7.12
2023-12-04T10:47:46.507Z,8.13
2023-12-04T10:50:50.457Z,6.20
2023-12-04T10:53:54.396Z,6.35
2023-12-04T10:57:05.074Z,5.87
2023-12-04T11:00:09.905Z,5.37
2023-12-04T11:03:36.151Z,5.28
2023-12-04T11:06:41.669Z,5.82
2023-12-04T11:09:45.612Z,5.75
2023-12-04T11:12:57.169Z,3.83
2023-12-04T11:16:04.103Z,4.72
2023-12-04T11:19:20.766Z,4.85
2023-12-04T11:22:26.582Z,4.53
2023-12-04T11:25:30.949Z,4.45
2023-12-04T11:28:35.200Z,4.05
2023-12-04T11:31:38.661Z,5.05
2023-12-04T11:34:53.116Z,4.70
2023-12-04T11:37:56.600Z,3.65
2023-12-04T11:41:02.030Z,3.25
2023-12-04T11:47:16.952Z,4.45
2023-12-04T11:50:20.827Z,4.20
2023-12-04T11:53:23.488Z,4.40
2023-12-04T11:56:26.474Z,4.12
2023-12-04T11:59:29.319Z,4.20
2023-12-04T12:03:13.992Z,4.80
2023-12-04T12:05:56.255Z,4.47
2023-12-04T12:08:59.038Z,4.35
2023-12-04T12:12:03.698Z,4.35
2023-12-04T12:15:10.270Z,4.47
2023-12-04T12:18:14.014Z,4.53
2023-12-04T12:21:17.448Z,4.60
2023-12-04T12:24:20.778Z,5.22
2023-12-04T12:27:26.581Z,3.95
2023-12-04T12:30:29.741Z,4.55
2023-12-04T12:33:32.480Z,4.60
2023-12-04T12:36:36.099Z,4.57
2023-12-04T12:39:40.143Z,5.32
2023-12-04T12:42:43.368Z,4.80
2023-12-04T12:48:52.613Z,4.37
2023-12-04T12:51:56.739Z,4.15
2023-12-04T12:55:00.450Z,3.90
2023-12-04T12:58:04.149Z,3.78
2023-12-04T13:01:11.359Z,4.78
2023-12-04T13:04:16.669Z,4.07
2023-12-04T13:07:20.443Z,4.03
2023-12-04T13:13:28.238Z,3.67
2023-12-04T13:16:31.181Z,4.28
2023-12-04T13:19:36.056Z,4.70
2023-12-04T13:22:39.147Z,3.87
2023-12-04T13:25:42.097Z,4.68
2023-12-04T13:28:45.056Z,4.93
2023-12-04T13:34:56.244Z,3.87
2023-12-04T13:38:00.820Z,5.07
2023-12-04T13:41:22.177Z,4.78
2023-12-04T13:44:25.365Z,4.43
2023-12-04T13:47:28.277Z,4.32
2023-12-04T13:50:31.762Z,4.93
2023-12-04T13:53:34.804Z,3.28
2023-12-04T13:56:50.623Z,4.28
2023-12-04T13:59:53.562Z,4.32
2023-12-04T14:06:09.921Z,3.50
2023-12-04T14:09:15.841Z,4.45
2023-12-04T14:12:19.041Z,3.80
2023-12-04T14:15:21.997Z,4.28
2023-12-04T14:18:25.328Z,4.85
2023-12-04T14:24:32.419Z,5.03
2023-12-04T14:33:43.350Z,3.72
2023-12-04T14:36:47.003Z,5.95
2023-12-04T14:39:49.685Z,4.50
2023-12-04T14:42:52.729Z,3.72
2023-12-04T14:45:55.515Z,4.10
2023-12-04T14:49:01.416Z,4.35
2023-12-04T14:52:06.053Z,4.37
2023-12-04T14:55:09.680Z,4.95
2023-12-04T15:01:53.240Z,4.30
2023-12-04T15:05:05.260Z,5.05
2023-12-04T15:08:17.161Z,5.07
2023-12-04T15:11:55.251Z,4.97
2023-12-04T15:15:21.364Z,4.82
2023-12-04T15:18:38.185Z,3.85
2023-12-04T15:21:42.015Z,4.93
2023-12-04T15:24:45.107Z,4.93
2023-12-04T15:27:48.497Z,5.55
2023-12-04T15:30:51.284Z,5.75
2023-12-04T15:33:54.581Z,4.20
2023-12-04T15:36:57.406Z,5.22
2023-12-04T15:40:00.424Z,5.47
2023-12-04T15:43:03.558Z,5.50
2023-12-04T15:46:07.405Z,5.07
2023-12-04T15:49:12.077Z,5.22
2023-12-04T15:52:19.933Z,5.78
2023-12-04T15:55:24.130Z,5.25
2023-12-04T15:58:27.136Z,4.93
2023-12-04T16:01:30.748Z,6.00
2023-12-04T16:04:34.057Z,4.25
2023-12-04T16:10:39.730Z,4.75
2023-12-04T16:13:42.432Z,5.75
2023-12-04T16:19:48.314Z,5.63
2023-12-04T16:22:53.698Z,5.60
2023-12-04T16:25:56.697Z,6.22
